sensor_id;sensor_type;location;lat;lon;timestamp;P1;durP1;ratioP1;P2;durP2;ratioP2
76731;SDS011;65656;51.130;13.658;2023-08-12T00:01:48;9.68;;;8.90;;
76731;SDS011;65656;51.130;13.658;2023-08-12T00:05:51;13.63;;;12.52;;
76731;SDS011;65656;51.130;13.658;2023-08-12T00:09:53;11.32;;;10.18;;
76731;SDS011;65656;51.130;13.658;2023-08-12T00:13:55;10.63;;;9.68;;
76731;SDS011;65656;51.130;13.658;2023-08-12T00:17:56;5.88;;;5.35;;
76731;SDS011;65656;51.130;13.658;2023-08-12T00:21:59;9.18;;;8.38;;
76731;SDS011;65656;51.130;13.658;2023-08-12T00:26:01;14.07;;;13.20;;
76731;SDS011;65656;51.130;13.658;2023-08-12T00:30:02;12.98;;;11.82;;
76731;SDS011;65656;51.130;13.658;2023-08-12T00:34:04;7.88;;;7.15;;
76731;SDS011;65656;51.130;13.658;2023-08-12T00:38:07;9.45;;;8.75;;
76731;SDS011;65656;51.130;13.658;2023-08-12T00:42:09;9.80;;;8.98;;
76731;SDS011;65656;51.130;13.658;2023-08-12T00:46:10;10.63;;;9.77;;
76731;SDS011;65656;51.130;13.658;2023-08-12T00:50:13;12.10;;;11.07;;
76731;SDS011;65656;51.130;13.658;2023-08-12T00:54:17;12.00;;;11.02;;
76731;SDS011;65656;51.130;13.658;2023-08-12T00:58:20;10.40;;;9.50;;
76731;SDS011;65656;51.130;13.658;2023-08-12T01:02:21;10.70;;;9.65;;
76731;SDS011;65656;51.130;13.658;2023-08-12T01:06:23;16.55;;;15.50;;
76731;SDS011;65656;51.130;13.658;2023-08-12T01:10:28;11.65;;;10.80;;
76731;SDS011;65656;51.130;13.658;2023-08-12T01:14:38;11.60;;;10.75;;
76731;SDS011;65656;51.130;13.658;2023-08-12T01:18:46;13.20;;;12.00;;
76731;SDS011;65656;51.130;13.658;2023-08-12T01:22:52;11.20;;;10.43;;
76731;SDS011;65656;51.130;13.658;2023-08-12T01:26:59;7.40;;;4.07;;
76731;SDS011;65656;51.130;13.658;2023-08-12T01:31:02;13.07;;;12.02;;
76731;SDS011;65656;51.130;13.658;2023-08-12T01:35:10;12.05;;;11.05;;
76731;SDS011;65656;51.130;13.658;2023-08-12T01:39:17;11.98;;;10.98;;
76731;SDS011;65656;51.130;13.658;2023-08-12T01:43:22;12.25;;;11.50;;
76731;SDS011;65656;51.130;13.658;2023-08-12T01:47:24;10.38;;;9.52;;
76731;SDS011;65656;51.130;13.658;2023-08-12T01:51:26;13.18;;;12.02;;
76731;SDS011;65656;51.130;13.658;2023-08-12T01:55:27;9.13;;;8.43;;
76731;SDS011;65656;51.130;13.658;2023-08-12T01:59:30;12.80;;;11.77;;
76731;SDS011;65656;51.130;13.658;2023-08-12T02:03:32;10.45;;;9.65;;
76731;SDS011;65656;51.130;13.658;2023-08-12T02:07:34;13.02;;;12.20;;
76731;SDS011;65656;51.130;13.658;2023-08-12T02:11:35;7.25;;;4.75;;
76731;SDS011;65656;51.130;13.658;2023-08-12T02:15:38;12.60;;;11.70;;
76731;SDS011;65656;51.130;13.658;2023-08-12T02:19:39;12.85;;;11.82;;
76731;SDS011;65656;51.130;13.658;2023-08-12T02:23:41;12.10;;;11.30;;
76731;SDS011;65656;51.130;13.658;2023-08-12T02:27:43;9.40;;;8.50;;
76731;SDS011;65656;51.130;13.658;2023-08-12T02:31:45;10.02;;;9.23;;
76731;SDS011;65656;51.130;13.658;2023-08-12T02:35:47;10.05;;;9.05;;
76731;SDS011;65656;51.130;13.658;2023-08-12T02:39:49;12.98;;;11.88;;
76731;SDS011;65656;51.130;13.658;2023-08-12T02:43:51;14.15;;;13.20;;
76731;SDS011;65656;51.130;13.658;2023-08-12T02:47:54;10.40;;;9.45;;
76731;SDS011;65656;51.130;13.658;2023-08-12T02:51:55;11.60;;;10.90;;
76731;SDS011;65656;51.130;13.658;2023-08-12T02:55:57;13.55;;;12.55;;
76731;SDS011;65656;51.130;13.658;2023-08-12T02:59:58;10.93;;;10.15;;
76731;SDS011;65656;51.130;13.658;2023-08-12T03:04:01;10.23;;;9.32;;
76731;SDS011;65656;51.130;13.658;2023-08-12T03:08:03;9.57;;;8.80;;
76731;SDS011;65656;51.130;13.658;2023-08-12T03:12:06;10.23;;;9.43;;
76731;SDS011;65656;51.130;13.658;2023-08-12T03:16:10;10.32;;;9.50;;
76731;SDS011;65656;51.130;13.658;2023-08-12T03:20:14;10.43;;;9.48;;
76731;SDS011;65656;51.130;13.658;2023-08-12T03:24:15;9.93;;;9.07;;
76731;SDS011;65656;51.130;13.658;2023-08-12T03:28:17;11.40;;;10.50;;
76731;SDS011;65656;51.130;13.658;2023-08-12T03:32:18;13.93;;;12.93;;
76731;SDS011;65656;51.130;13.658;2023-08-12T03:36:21;12.57;;;11.75;;
76731;SDS011;65656;51.130;13.658;2023-08-12T03:40:23;13.82;;;12.82;;
76731;SDS011;65656;51.130;13.658;2023-08-12T03:44:25;6.97;;;6.35;;
76731;SDS011;65656;51.130;13.658;2023-08-12T03:48:26;11.93;;;11.13;;
76731;SDS011;65656;51.130;13.658;2023-08-12T03:52:29;10.15;;;9.25;;
76731;SDS011;65656;51.130;13.658;2023-08-12T03:56:31;11.43;;;10.63;;
76731;SDS011;65656;51.130;13.658;2023-08-12T04:00:32;12.50;;;11.52;;
76731;SDS011;65656;51.130;13.658;2023-08-12T04:04:34;11.07;;;10.18;;
76731;SDS011;65656;51.130;13.658;2023-08-12T04:08:37;10.57;;;9.73;;
76731;SDS011;65656;51.130;13.658;2023-08-12T04:12:39;5.22;;;4.72;;
76731;SDS011;65656;51.130;13.658;2023-08-12T04:16:41;13.32;;;12.32;;
76731;SDS011;65656;51.130;13.658;2023-08-12T04:20:44;15.38;;;14.48;;
76731;SDS011;65656;51.130;13.658;2023-08-12T04:24:47;11.05;;;10.25;;
76731;SDS011;65656;51.130;13.658;2023-08-12T04:28:49;13.65;;;12.52;;
76731;SDS011;65656;51.130;13.658;2023-08-12T04:32:50;11.30;;;10.35;;
76731;SDS011;65656;51.130;13.658;2023-08-12T04:36:52;9.93;;;8.98;;
76731;SDS011;65656;51.130;13.658;2023-08-12T04:40:55;5.93;;;5.43;;
76731;SDS011;65656;51.130;13.658;2023-08-12T04:44:56;11.05;;;10.32;;
76731;SDS011;65656;51.130;13.658;2023-08-12T04:48:58;11.45;;;10.73;;
76731;SDS011;65656;51.130;13.658;2023-08-12T04:52:59;7.15;;;6.45;;
76731;SDS011;65656;51.130;13.658;2023-08-12T04:57:03;12.10;;;11.20;;
76731;SDS011;65656;51.130;13.658;2023-08-12T05:01:04;15.18;;;13.73;;
76731;SDS011;65656;51.130;13.658;2023-08-12T05:05:06;9.10;;;8.40;;
76731;SDS011;65656;51.130;13.658;2023-08-12T05:09:09;13.13;;;12.23;;
76731;SDS011;65656;51.130;13.658;2023-08-12T05:13:12;10.63;;;9.75;;
76731;SDS011;65656;51.130;13.658;2023-08-12T05:17:13;7.22;;;5.00;;
76731;SDS011;65656;51.130;13.658;2023-08-12T05:21:15;7.38;;;6.70;;
76731;SDS011;65656;51.130;13.658;2023-08-12T05:25:16;13.23;;;12.18;;
76731;SDS011;65656;51.130;13.658;2023-08-12T05:29:19;12.63;;;11.63;;
76731;SDS011;65656;51.130;13.658;2023-08-12T05:33:21;11.57;;;10.80;;
76731;SDS011;65656;51.130;13.658;2023-08-12T05:37:23;9.75;;;9.05;;
76731;SDS011;65656;51.130;13.658;2023-08-12T05:41:24;11.13;;;10.25;;
76731;SDS011;65656;51.130;13.658;2023-08-12T05:45:27;9.07;;;8.20;;
76731;SDS011;65656;51.130;13.658;2023-08-12T05:49:29;12.10;;;11.30;;
76731;SDS011;65656;51.130;13.658;2023-08-12T05:53:31;9.15;;;8.27;;
76731;SDS011;65656;51.130;13.658;2023-08-12T05:57:32;9.90;;;8.98;;
76731;SDS011;65656;51.130;13.658;2023-08-12T06:01:35;8.40;;;7.75;;
76731;SDS011;65656;51.130;13.658;2023-08-12T06:05:37;12.25;;;11.18;;
76731;SDS011;65656;51.130;13.658;2023-08-12T06:09:39;10.98;;;10.23;;
76731;SDS011;65656;51.130;13.658;2023-08-12T06:13:40;11.98;;;11.18;;
76731;SDS011;65656;51.130;13.658;2023-08-12T06:17:43;10.50;;;9.52;;
76731;SDS011;65656;51.130;13.658;2023-08-12T06:21:45;8.38;;;7.57;;
76731;SDS011;65656;51.130;13.658;2023-08-12T06:25:46;10.20;;;9.40;;
76731;SDS011;65656;51.130;13.658;2023-08-12T06:29:48;11.35;;;10.52;;
76731;SDS011;65656;51.130;13.658;2023-08-12T06:33:51;9.55;;;8.85;;
76731;SDS011;65656;51.130;13.658;2023-08-12T06:37:52;11.25;;;8.93;;
76731;SDS011;65656;51.130;13.658;2023-08-12T06:41:54;12.60;;;11.68;;
76731;SDS011;65656;51.130;13.658;2023-08-12T06:45:56;8.23;;;7.53;;
76731;SDS011;65656;51.130;13.658;2023-08-12T06:49:59;10.07;;;9.38;;
76731;SDS011;65656;51.130;13.658;2023-08-12T06:54:00;10.30;;;9.50;;
76731;SDS011;65656;51.130;13.658;2023-08-12T06:58:02;8.90;;;8.00;;
76731;SDS011;65656;51.130;13.658;2023-08-12T07:02:04;8.02;;;7.28;;
76731;SDS011;65656;51.130;13.658;2023-08-12T07:06:08;8.88;;;8.10;;
76731;SDS011;65656;51.130;13.658;2023-08-12T07:10:10;10.40;;;9.57;;
76731;SDS011;65656;51.130;13.658;2023-08-12T07:14:12;9.23;;;8.63;;
76731;SDS011;65656;51.130;13.658;2023-08-12T07:18:13;8.23;;;7.63;;
76731;SDS011;65656;51.130;13.658;2023-08-12T07:22:16;8.95;;;4.93;;
76731;SDS011;65656;51.130;13.658;2023-08-12T07:26:18;9.05;;;8.07;;
76731;SDS011;65656;51.130;13.658;2023-08-12T07:30:19;8.55;;;7.85;;
76731;SDS011;65656;51.130;13.658;2023-08-12T07:34:21;6.95;;;5.18;;
76731;SDS011;65656;51.130;13.658;2023-08-12T07:38:24;12.38;;;11.35;;
76731;SDS011;65656;51.130;13.658;2023-08-12T07:42:25;8.15;;;7.53;;
76731;SDS011;65656;51.130;13.658;2023-08-12T07:46:27;10.13;;;9.32;;
76731;SDS011;65656;51.130;13.658;2023-08-12T07:50:29;8.00;;;6.68;;
76731;SDS011;65656;51.130;13.658;2023-08-12T07:54:32;8.70;;;7.88;;
76731;SDS011;65656;51.130;13.658;2023-08-12T07:58:34;7.40;;;6.85;;
76731;SDS011;65656;51.130;13.658;2023-08-12T08:02:35;8.02;;;7.43;;
76731;SDS011;65656;51.130;13.658;2023-08-12T08:06:37;8.90;;;8.25;;
76731;SDS011;65656;51.130;13.658;2023-08-12T08:10:40;8.32;;;7.63;;
76731;SDS011;65656;51.130;13.658;2023-08-12T08:14:42;7.45;;;6.80;;
76731;SDS011;65656;51.130;13.658;2023-08-12T08:18:43;7.93;;;7.22;;
76731;SDS011;65656;51.130;13.658;2023-08-12T08:22:45;6.43;;;5.82;;
76731;SDS011;65656;51.130;13.658;2023-08-12T08:26:48;9.35;;;8.55;;
76731;SDS011;65656;51.130;13.658;2023-08-12T08:30:49;5.97;;;5.47;;
76731;SDS011;65656;51.130;13.658;2023-08-12T08:34:51;8.35;;;7.55;;
76731;SDS011;65656;51.130;13.658;2023-08-12T08:38:53;8.63;;;7.90;;
76731;SDS011;65656;51.130;13.658;2023-08-12T08:42:56;43.70;;;9.00;;
76731;SDS011;65656;51.130;13.658;2023-08-12T08:47:03;8.60;;;7.18;;
76731;SDS011;65656;51.130;13.658;2023-08-12T08:51:06;7.05;;;6.40;;
76731;SDS011;65656;51.130;13.658;2023-08-12T08:55:09;9.85;;;8.95;;
76731;SDS011;65656;51.130;13.658;2023-08-12T08:59:12;6.25;;;5.65;;
76731;SDS011;65656;51.130;13.658;2023-08-12T09:03:13;7.50;;;6.80;;
76731;SDS011;65656;51.130;13.658;2023-08-12T09:07:15;8.68;;;7.85;;
76731;SDS011;65656;51.130;13.658;2023-08-12T09:11:17;102.75;;;23.52;;
76731;SDS011;65656;51.130;13.658;2023-08-12T09:15:21;6.18;;;5.57;;
76731;SDS011;65656;51.130;13.658;2023-08-12T09:19:22;6.88;;;3.83;;
76731;SDS011;65656;51.130;13.658;2023-08-12T09:23:25;8.40;;;7.80;;
76731;SDS011;65656;51.130;13.658;2023-08-12T09:27:27;6.85;;;4.03;;
76731;SDS011;65656;51.130;13.658;2023-08-12T09:31:32;5.70;;;5.13;;
76731;SDS011;65656;51.130;13.658;2023-08-12T09:35:34;5.97;;;3.08;;
76731;SDS011;65656;51.130;13.658;2023-08-12T09:39:37;5.18;;;3.78;;
76731;SDS011;65656;51.130;13.658;2023-08-12T09:43:40;6.22;;;4.88;;
76731;SDS011;65656;51.130;13.658;2023-08-12T09:47:43;6.40;;;5.85;;
76731;SDS011;65656;51.130;13.658;2023-08-12T09:51:45;4.70;;;4.30;;
76731;SDS011;65656;51.130;13.658;2023-08-12T09:55:47;4.53;;;4.13;;
76731;SDS011;65656;51.130;13.658;2023-08-12T09:59:49;4.32;;;3.92;;
76731;SDS011;65656;51.130;13.658;2023-08-12T10:03:54;4.32;;;3.47;;
76731;SDS011;65656;51.130;13.658;2023-08-12T10:07:56;3.97;;;3.65;;
76731;SDS011;65656;51.130;13.658;2023-08-12T10:11:59;5.70;;;5.10;;
76731;SDS011;65656;51.130;13.658;2023-08-12T10:16:00;5.88;;;5.40;;
76731;SDS011;65656;51.130;13.658;2023-08-12T10:20:05;4.85;;;4.45;;
76731;SDS011;65656;51.130;13.658;2023-08-12T10:24:07;4.72;;;4.32;;
76731;SDS011;65656;51.130;13.658;2023-08-12T10:28:09;4.40;;;3.45;;
76731;SDS011;65656;51.130;13.658;2023-08-12T10:32:12;5.00;;;4.00;;
76731;SDS011;65656;51.130;13.658;2023-08-12T10:36:16;3.20;;;1.92;;
76731;SDS011;65656;51.130;13.658;2023-08-12T10:40:21;3.42;;;2.72;;
76731;SDS011;65656;51.130;13.658;2023-08-12T10:44:25;6.57;;;6.07;;
76731;SDS011;65656;51.130;13.658;2023-08-12T10:48:39;4.18;;;3.88;;
76731;SDS011;65656;51.130;13.658;2023-08-12T10:52:58;2.33;;;1.40;;
76731;SDS011;65656;51.130;13.658;2023-08-12T10:57:06;2.72;;;1.90;;
76731;SDS011;65656;51.130;13.658;2023-08-12T11:01:11;4.53;;;4.22;;
76731;SDS011;65656;51.130;13.658;2023-08-12T11:05:17;4.53;;;3.75;;
76731;SDS011;65656;51.130;13.658;2023-08-12T11:09:21;5.28;;;4.88;;
76731;SDS011;65656;51.130;13.658;2023-08-12T11:13:23;3.22;;;2.65;;
76731;SDS011;65656;51.130;13.658;2023-08-12T11:17:35;3.65;;;3.08;;
76731;SDS011;65656;51.130;13.658;2023-08-12T11:21:37;4.80;;;3.70;;
76731;SDS011;65656;51.130;13.658;2023-08-12T11:25:42;4.82;;;3.50;;
76731;SDS011;65656;51.130;13.658;2023-08-12T11:29:44;3.92;;;3.53;;
76731;SDS011;65656;51.130;13.658;2023-08-12T11:33:46;4.00;;;3.63;;
76731;SDS011;65656;51.130;13.658;2023-08-12T11:37:50;4.72;;;4.32;;
76731;SDS011;65656;51.130;13.658;2023-08-12T11:41:54;3.83;;;3.42;;
76731;SDS011;65656;51.130;13.658;2023-08-12T11:45:56;3.95;;;3.47;;
76731;SDS011;65656;51.130;13.658;2023-08-12T11:49:58;5.32;;;4.15;;
76731;SDS011;65656;51.130;13.658;2023-08-12T11:53:59;5.13;;;4.72;;
76731;SDS011;65656;51.130;13.658;2023-08-12T11:58:02;8.80;;;8.30;;
76731;SDS011;65656;51.130;13.658;2023-08-12T12:02:04;4.47;;;3.78;;
76731;SDS011;65656;51.130;13.658;2023-08-12T12:06:06;3.40;;;2.47;;
76731;SDS011;65656;51.130;13.658;2023-08-12T12:10:08;3.88;;;2.17;;
76731;SDS011;65656;51.130;13.658;2023-08-12T12:14:14;4.30;;;4.00;;
76731;SDS011;65656;51.130;13.658;2023-08-12T12:18:16;2.70;;;1.85;;
76731;SDS011;65656;51.130;13.658;2023-08-12T12:22:18;4.43;;;2.90;;
76731;SDS011;65656;51.130;13.658;2023-08-12T12:26:19;5.38;;;3.42;;
76731;SDS011;65656;51.130;13.658;2023-08-12T12:30:22;3.80;;;3.50;;
76731;SDS011;65656;51.130;13.658;2023-08-12T12:34:24;3.55;;;3.22;;
76731;SDS011;65656;51.130;13.658;2023-08-12T12:38:26;4.18;;;3.80;;
76731;SDS011;65656;51.130;13.658;2023-08-12T12:42:27;3.75;;;3.35;;
76731;SDS011;65656;51.130;13.658;2023-08-12T12:46:30;3.72;;;1.75;;
76731;SDS011;65656;51.130;13.658;2023-08-12T12:50:32;4.57;;;4.10;;
76731;SDS011;65656;51.130;13.658;2023-08-12T12:54:34;4.22;;;3.47;;
76731;SDS011;65656;51.130;13.658;2023-08-12T12:58:35;3.55;;;3.22;;
76731;SDS011;65656;51.130;13.658;2023-08-12T13:02:41;4.78;;;2.97;;
76731;SDS011;65656;51.130;13.658;2023-08-12T13:06:44;3.60;;;2.30;;
76731;SDS011;65656;51.130;13.658;2023-08-12T13:10:46;5.07;;;4.35;;
76731;SDS011;65656;51.130;13.658;2023-08-12T13:14:47;3.35;;;3.03;;
76731;SDS011;65656;51.130;13.658;2023-08-12T13:18:50;3.97;;;3.65;;
76731;SDS011;65656;51.130;13.658;2023-08-12T13:22:52;3.30;;;2.22;;
76731;SDS011;65656;51.130;13.658;2023-08-12T13:26:53;2.97;;;2.63;;
76731;SDS011;65656;51.130;13.658;2023-08-12T13:30:55;3.53;;;2.90;;
76731;SDS011;65656;51.130;13.658;2023-08-12T13:34:58;3.25;;;1.98;;
76731;SDS011;65656;51.130;13.658;2023-08-12T13:38:59;4.63;;;2.53;;
76731;SDS011;65656;51.130;13.658;2023-08-12T13:43:01;5.07;;;2.75;;
76731;SDS011;65656;51.130;13.658;2023-08-12T13:47:03;7.32;;;4.05;;
76731;SDS011;65656;51.130;13.658;2023-08-12T13:51:06;5.07;;;4.30;;
76731;SDS011;65656;51.130;13.658;2023-08-12T13:55:08;5.03;;;3.35;;
76731;SDS011;65656;51.130;13.658;2023-08-12T13:59:10;7.43;;;2.22;;
76731;SDS011;65656;51.130;13.658;2023-08-12T14:03:11;5.25;;;4.85;;
76731;SDS011;65656;51.130;13.658;2023-08-12T14:07:14;5.53;;;5.05;;
76731;SDS011;65656;51.130;13.658;2023-08-12T14:11:16;4.82;;;4.43;;
76731;SDS011;65656;51.130;13.658;2023-08-12T14:15:17;4.40;;;4.03;;
76731;SDS011;65656;51.130;13.658;2023-08-12T14:19:19;5.25;;;3.35;;
76731;SDS011;65656;51.130;13.658;2023-08-12T14:23:22;4.03;;;2.28;;
76731;SDS011;65656;51.130;13.658;2023-08-12T14:27:24;4.38;;;3.97;;
76731;SDS011;65656;51.130;13.658;2023-08-12T14:31:26;4.97;;;2.97;;
76731;SDS011;65656;51.130;13.658;2023-08-12T14:35:27;5.82;;;5.43;;
76731;SDS011;65656;51.130;13.658;2023-08-12T14:39:30;3.83;;;3.17;;
76731;SDS011;65656;51.130;13.658;2023-08-12T14:43:32;4.22;;;3.88;;
76731;SDS011;65656;51.130;13.658;2023-08-12T14:47:33;4.53;;;3.95;;
76731;SDS011;65656;51.130;13.658;2023-08-12T14:51:35;5.70;;;5.10;;
76731;SDS011;65656;51.130;13.658;2023-08-12T14:55:38;6.30;;;3.60;;
76731;SDS011;65656;51.130;13.658;2023-08-12T14:59:39;6.07;;;4.43;;
76731;SDS011;65656;51.130;13.658;2023-08-12T15:03:41;8.80;;;3.70;;
76731;SDS011;65656;51.130;13.658;2023-08-12T15:07:43;9.90;;;5.05;;
76731;SDS011;65656;51.130;13.658;2023-08-12T15:11:46;4.82;;;4.28;;
76731;SDS011;65656;51.130;13.658;2023-08-12T15:15:48;3.55;;;2.67;;
76731;SDS011;65656;51.130;13.658;2023-08-12T15:19:50;4.97;;;4.38;;
76731;SDS011;65656;51.130;13.658;2023-08-12T15:23:52;4.07;;;3.22;;
76731;SDS011;65656;51.130;13.658;2023-08-12T15:27:55;4.22;;;2.55;;
76731;SDS011;65656;51.130;13.658;2023-08-12T15:31:56;2.92;;;1.83;;
76731;SDS011;65656;51.130;13.658;2023-08-12T15:35:58;4.80;;;3.53;;
76731;SDS011;65656;51.130;13.658;2023-08-12T15:39:59;4.18;;;3.33;;
76731;SDS011;65656;51.130;13.658;2023-08-12T15:44:03;3.90;;;3.53;;
76731;SDS011;65656;51.130;13.658;2023-08-12T15:48:05;4.30;;;3.08;;
76731;SDS011;65656;51.130;13.658;2023-08-12T15:52:07;5.50;;;4.88;;
76731;SDS011;65656;51.130;13.658;2023-08-12T15:56:09;5.40;;;2.88;;
76731;SDS011;65656;51.130;13.658;2023-08-12T16:00:12;11.73;;;11.07;;
76731;SDS011;65656;51.130;13.658;2023-08-12T16:04:13;5.55;;;5.05;;
76731;SDS011;65656;51.130;13.658;2023-08-12T16:08:15;8.70;;;8.00;;
76731;SDS011;65656;51.130;13.658;2023-08-12T16:12:17;7.20;;;4.43;;
76731;SDS011;65656;51.130;13.658;2023-08-12T16:16:20;9.27;;;8.45;;
76731;SDS011;65656;51.130;13.658;2023-08-12T16:20:21;9.35;;;6.95;;
76731;SDS011;65656;51.130;13.658;2023-08-12T16:24:23;6.03;;;5.18;;
76731;SDS011;65656;51.130;13.658;2023-08-12T16:28:25;6.45;;;5.85;;
76731;SDS011;65656;51.130;13.658;2023-08-12T16:32:28;8.27;;;7.57;;
76731;SDS011;65656;51.130;13.658;2023-08-12T16:36:29;8.18;;;6.05;;
76731;SDS011;65656;51.130;13.658;2023-08-12T16:40:31;6.43;;;5.85;;
76731;SDS011;65656;51.130;13.658;2023-08-12T16:44:32;6.65;;;4.93;;
76731;SDS011;65656;51.130;13.658;2023-08-12T16:48:35;7.30;;;6.60;;
76731;SDS011;65656;51.130;13.658;2023-08-12T16:52:37;6.32;;;4.07;;
76731;SDS011;65656;51.130;13.658;2023-08-12T16:56:38;5.72;;;4.50;;
76731;SDS011;65656;51.130;13.658;2023-08-12T17:00:40;11.43;;;3.95;;
76731;SDS011;65656;51.130;13.658;2023-08-12T17:04:43;6.90;;;6.03;;
76731;SDS011;65656;51.130;13.658;2023-08-12T17:08:45;10.55;;;8.95;;
76731;SDS011;65656;51.130;13.658;2023-08-12T17:12:46;7.85;;;5.28;;
76731;SDS011;65656;51.130;13.658;2023-08-12T17:16:48;7.80;;;7.10;;
76731;SDS011;65656;51.130;13.658;2023-08-12T17:20:51;8.32;;;7.72;;
76731;SDS011;65656;51.130;13.658;2023-08-12T17:24:53;8.52;;;7.82;;
76731;SDS011;65656;51.130;13.658;2023-08-12T17:28:55;7.25;;;6.32;;
76731;SDS011;65656;51.130;13.658;2023-08-12T17:32:56;11.13;;;10.10;;
76731;SDS011;65656;51.130;13.658;2023-08-12T17:36:59;6.47;;;5.07;;
76731;SDS011;65656;51.130;13.658;2023-08-12T17:41:01;9.10;;;8.20;;
76731;SDS011;65656;51.130;13.658;2023-08-12T17:45:03;9.88;;;9.07;;
76731;SDS011;65656;51.130;13.658;2023-08-12T17:49:05;9.35;;;8.65;;
76731;SDS011;65656;51.130;13.658;2023-08-12T17:53:08;7.47;;;6.72;;
76731;SDS011;65656;51.130;13.658;2023-08-12T17:57:09;5.32;;;4.60;;
76731;SDS011;65656;51.130;13.658;2023-08-12T18:01:11;6.05;;;4.32;;
76731;SDS011;65656;51.130;13.658;2023-08-12T18:05:12;9.77;;;9.00;;
76731;SDS011;65656;51.130;13.658;2023-08-12T18:09:16;9.57;;;8.85;;
76731;SDS011;65656;51.130;13.658;2023-08-12T18:13:18;9.05;;;8.27;;
76731;SDS011;65656;51.130;13.658;2023-08-12T18:17:20;8.07;;;7.47;;
76731;SDS011;65656;51.130;13.658;2023-08-12T18:21:22;9.35;;;8.50;;
76731;SDS011;65656;51.130;13.658;2023-08-12T18:25:25;8.30;;;7.57;;
76731;SDS011;65656;51.130;13.658;2023-08-12T18:29:26;5.38;;;4.43;;
76731;SDS011;65656;51.130;13.658;2023-08-12T18:33:28;9.10;;;8.40;;
76731;SDS011;65656;51.130;13.658;2023-08-12T18:37:29;9.07;;;8.18;;
76731;SDS011;65656;51.130;13.658;2023-08-12T18:41:32;12.50;;;11.60;;
76731;SDS011;65656;51.130;13.658;2023-08-12T18:45:34;10.15;;;9.45;;
76731;SDS011;65656;51.130;13.658;2023-08-12T18:49:36;13.23;;;12.43;;
76731;SDS011;65656;51.130;13.658;2023-08-12T18:53:37;8.05;;;7.45;;
76731;SDS011;65656;51.130;13.658;2023-08-12T18:57:40;4.75;;;3.72;;
76731;SDS011;65656;51.130;13.658;2023-08-12T19:01:41;11.18;;;10.23;;
76731;SDS011;65656;51.130;13.658;2023-08-12T19:05:43;10.32;;;9.63;;
76731;SDS011;65656;51.130;13.658;2023-08-12T19:09:45;7.07;;;6.38;;
76731;SDS011;65656;51.130;13.658;2023-08-12T19:13:48;11.35;;;10.45;;
76731;SDS011;65656;51.130;13.658;2023-08-12T19:17:49;6.30;;;5.70;;
76731;SDS011;65656;51.130;13.658;2023-08-12T19:21:51;7.82;;;6.97;;
76731;SDS011;65656;51.130;13.658;2023-08-12T19:25:52;8.93;;;8.32;;
76731;SDS011;65656;51.130;13.658;2023-08-12T19:29:55;8.77;;;8.02;;
76731;SDS011;65656;51.130;13.658;2023-08-12T19:33:57;4.13;;;3.22;;
76731;SDS011;65656;51.130;13.658;2023-08-12T19:37:59;7.63;;;6.97;;
76731;SDS011;65656;51.130;13.658;2023-08-12T19:42:00;8.43;;;7.72;;
76731;SDS011;65656;51.130;13.658;2023-08-12T19:46:03;8.75;;;8.05;;
76731;SDS011;65656;51.130;13.658;2023-08-12T19:50:05;6.47;;;5.88;;
76731;SDS011;65656;51.130;13.658;2023-08-12T19:54:07;7.20;;;6.70;;
76731;SDS011;65656;51.130;13.658;2023-08-12T19:58:09;7.65;;;6.95;;
76731;SDS011;65656;51.130;13.658;2023-08-12T20:02:12;8.23;;;7.53;;
76731;SDS011;65656;51.130;13.658;2023-08-12T20:06:29;8.73;;;8.13;;
76731;SDS011;65656;51.130;13.658;2023-08-12T20:10:30;9.48;;;8.77;;
76731;SDS011;65656;51.130;13.658;2023-08-12T20:14:32;7.53;;;6.93;;
76731;SDS011;65656;51.130;13.658;2023-08-12T20:18:35;7.85;;;7.20;;
76731;SDS011;65656;51.130;13.658;2023-08-12T20:22:36;7.25;;;6.65;;
76731;SDS011;65656;51.130;13.658;2023-08-12T20:26:47;8.48;;;7.78;;
76731;SDS011;65656;51.130;13.658;2023-08-12T20:30:49;5.82;;;5.28;;
76731;SDS011;65656;51.130;13.658;2023-08-12T20:34:52;7.50;;;6.80;;
76731;SDS011;65656;51.130;13.658;2023-08-12T20:38:54;6.22;;;5.72;;
76731;SDS011;65656;51.130;13.658;2023-08-12T20:42:55;9.50;;;8.85;;
76731;SDS011;65656;51.130;13.658;2023-08-12T20:46:57;10.32;;;9.55;;
76731;SDS011;65656;51.130;13.658;2023-08-12T20:51:00;8.02;;;7.40;;
76731;SDS011;65656;51.130;13.658;2023-08-12T20:55:02;5.95;;;5.55;;
76731;SDS011;65656;51.130;13.658;2023-08-12T20:59:04;4.65;;;4.18;;
76731;SDS011;65656;51.130;13.658;2023-08-12T21:03:06;6.35;;;5.93;;
76731;SDS011;65656;51.130;13.658;2023-08-12T21:07:09;6.50;;;5.82;;
76731;SDS011;65656;51.130;13.658;2023-08-12T21:11:10;5.20;;;4.80;;
76731;SDS011;65656;51.130;13.658;2023-08-12T21:15:12;7.75;;;7.13;;
76731;SDS011;65656;51.130;13.658;2023-08-12T21:19:14;7.50;;;6.90;;
76731;SDS011;65656;51.130;13.658;2023-08-12T21:23:17;4.68;;;4.28;;
76731;SDS011;65656;51.130;13.658;2023-08-12T21:27:18;3.20;;;2.17;;
76731;SDS011;65656;51.130;13.658;2023-08-12T21:31:20;5.82;;;5.30;;
76731;SDS011;65656;51.130;13.658;2023-08-12T21:35:22;5.32;;;4.93;;
76731;SDS011;65656;51.130;13.658;2023-08-12T21:39:25;5.32;;;4.88;;
76731;SDS011;65656;51.130;13.658;2023-08-12T21:43:26;3.28;;;2.55;;
76731;SDS011;65656;51.130;13.658;2023-08-12T21:47:28;6.95;;;6.45;;
76731;SDS011;65656;51.130;13.658;2023-08-12T21:51:30;5.90;;;5.47;;
76731;SDS011;65656;51.130;13.658;2023-08-12T21:55:33;4.72;;;4.32;;
76731;SDS011;65656;51.130;13.658;2023-08-12T21:59:34;6.10;;;5.60;;
76731;SDS011;65656;51.130;13.658;2023-08-12T22:03:36;5.43;;;4.93;;
76731;SDS011;65656;51.130;13.658;2023-08-12T22:07:37;5.75;;;5.28;;
76731;SDS011;65656;51.130;13.658;2023-08-12T22:11:40;3.95;;;3.58;;
76731;SDS011;65656;51.130;13.658;2023-08-12T22:15:42;5.85;;;5.30;;
76731;SDS011;65656;51.130;13.658;2023-08-12T22:19:44;7.55;;;6.85;;
76731;SDS011;65656;51.130;13.658;2023-08-12T22:23:45;4.93;;;4.53;;
76731;SDS011;65656;51.130;13.658;2023-08-12T22:27:48;5.85;;;5.32;;
76731;SDS011;65656;51.130;13.658;2023-08-12T22:31:50;7.55;;;4.43;;
76731;SDS011;65656;51.130;13.658;2023-08-12T22:35:51;8.40;;;7.78;;
76731;SDS011;65656;51.130;13.658;2023-08-12T22:39:53;5.20;;;4.70;;
76731;SDS011;65656;51.130;13.658;2023-08-12T22:43:56;5.95;;;5.45;;
76731;SDS011;65656;51.130;13.658;2023-08-12T22:47:57;3.55;;;1.98;;
76731;SDS011;65656;51.130;13.658;2023-08-12T22:51:59;4.03;;;3.15;;
76731;SDS011;65656;51.130;13.658;2023-08-12T22:56:01;8.45;;;7.95;;
76731;SDS011;65656;51.130;13.658;2023-08-12T23:00:04;4.97;;;4.57;;
76731;SDS011;65656;51.130;13.658;2023-08-12T23:04:07;5.45;;;4.55;;
76731;SDS011;65656;51.130;13.658;2023-08-12T23:08:08;6.03;;;5.43;;
76731;SDS011;65656;51.130;13.658;2023-08-12T23:12:10;7.57;;;6.88;;
76731;SDS011;65656;51.130;13.658;2023-08-12T23:16:13;8.70;;;8.10;;
76731;SDS011;65656;51.130;13.658;2023-08-12T23:20:15;9.45;;;8.85;;
76731;SDS011;65656;51.130;13.658;2023-08-12T23:24:16;8.70;;;8.00;;
76731;SDS011;65656;51.130;13.658;2023-08-12T23:28:18;4.28;;;3.80;;
76731;SDS011;65656;51.130;13.658;2023-08-12T23:32:21;5.40;;;5.00;;
76731;SDS011;65656;51.130;13.658;2023-08-12T23:36:22;7.10;;;6.50;;
76731;SDS011;65656;51.130;13.658;2023-08-12T23:40:24;8.60;;;7.55;;
76731;SDS011;65656;51.130;13.658;2023-08-12T23:44:25;6.25;;;5.78;;
76731;SDS011;65656;51.130;13.658;2023-08-12T23:48:28;7.68;;;7.07;;